createdAt,value
2023-03-10T00:01:17.169Z,5.86
2023-03-10T00:03:45.652Z,5.80
2023-03-10T00:06:15.865Z,5.75
2023-03-10T00:08:45.459Z,5.70
2023-03-10T00:11:13.722Z,5.65
2023-03-10T00:13:42.855Z,5.60
2023-03-10T00:16:22.297Z,5.55
2023-03-10T00:18:49.987Z,5.49
2023-03-10T00:21:19.961Z,5.45
2023-03-10T00:23:56.339Z,5.44
2023-03-10T00:26:26.900Z,5.42
2023-03-10T00:28:55.094Z,5.39
2023-03-10T00:31:25.091Z,5.37
2023-03-10T00:33:52.478Z,5.35
2023-03-10T00:36:28.065Z,5.34
2023-03-10T00:38:57.270Z,5.30
2023-03-10T00:41:32.933Z,5.30
2023-03-10T00:44:00.477Z,5.29
2023-03-10T00:46:29.349Z,5.25
2023-03-10T00:48:56.437Z,5.23
2023-03-10T00:51:23.668Z,5.21
2023-03-10T00:53:51.072Z,5.19
2023-03-10T00:56:23.902Z,5.17
2023-03-10T00:58:55.555Z,5.15
2023-03-10T01:01:32.090Z,5.11
2023-03-10T01:04:02.632Z,5.05
2023-03-10T01:06:31.477Z,5.00
2023-03-10T01:08:59.654Z,4.96
2023-03-10T01:11:35.026Z,4.91
2023-03-10T01:14:06.461Z,4.86
2023-03-10T01:16:34.078Z,4.83
2023-03-10T01:19:01.427Z,4.80
2023-03-10T01:21:31.799Z,4.80
2023-03-10T01:24:00.172Z,4.79
2023-03-10T01:26:27.993Z,4.78
2023-03-10T01:28:55.114Z,4.78
2023-03-10T01:31:22.630Z,4.78
2023-03-10T01:33:50.617Z,4.78
2023-03-10T01:36:20.595Z,4.80
2023-03-10T01:38:48.551Z,4.81
2023-03-10T01:41:16.876Z,4.81
2023-03-10T01:43:46.664Z,4.82
2023-03-10T01:46:32.899Z,4.82
2023-03-10T01:49:16.290Z,4.81
2023-03-10T01:51:48.387Z,4.81
2023-03-10T01:54:21.864Z,4.81
2023-03-10T01:56:51.893Z,4.82
2023-03-10T01:59:21.355Z,4.84
2023-03-10T02:01:51.568Z,4.86
2023-03-10T02:04:27.704Z,4.88
2023-03-10T02:06:57.612Z,4.91
2023-03-10T02:09:28.028Z,4.93
2023-03-10T02:11:57.422Z,4.96
2023-03-10T02:14:25.377Z,4.97
2023-03-10T02:16:52.669Z,5.00
2023-03-10T02:19:52.936Z,5.04
2023-03-10T02:22:20.826Z,5.07
2023-03-10T02:25:08.745Z,5.09
2023-03-10T02:27:39.290Z,5.12
2023-03-10T02:30:26.552Z,5.15
2023-03-10T02:33:01.208Z,5.16
2023-03-10T02:35:28.498Z,5.18
2023-03-10T02:37:59.219Z,5.19
2023-03-10T02:40:37.137Z,5.19
2023-03-10T02:43:21.439Z,5.18
2023-03-10T02:45:53.290Z,5.16
2023-03-10T02:48:28.061Z,5.17
2023-03-10T02:50:56.977Z,5.18
2023-03-10T02:53:27.533Z,5.20
2023-03-10T02:55:56.991Z,5.23
2023-03-10T02:58:26.119Z,5.26
2023-03-10T03:00:53.422Z,5.28
2023-03-10T03:03:21.951Z,5.28
2023-03-10T03:05:49.371Z,5.30
2023-03-10T03:08:19.884Z,5.31
2023-03-10T03:10:47.580Z,5.31
2023-03-10T03:13:15.122Z,5.32
2023-03-10T03:15:43.022Z,5.33
2023-03-10T03:18:12.964Z,5.34
2023-03-10T03:20:42.474Z,5.35
2023-03-10T03:23:13.099Z,5.36
2023-03-10T03:25:41.900Z,5.36
2023-03-10T03:28:11.560Z,5.37
2023-03-10T03:30:39.990Z,5.39
2023-03-10T03:33:08.105Z,5.41
2023-03-10T03:35:37.185Z,5.42
2023-03-10T03:38:06.089Z,5.42
2023-03-10T03:40:35.928Z,5.41
2023-03-10T03:43:04.577Z,5.42
2023-03-10T03:45:37.591Z,5.44
2023-03-10T03:48:04.928Z,5.45
2023-03-10T03:50:32.462Z,5.48
2023-03-10T03:53:03.823Z,5.50
2023-03-10T03:55:31.322Z,5.52
2023-03-10T03:58:00.239Z,5.54
2023-03-10T04:00:27.593Z,5.58
2023-03-10T04:03:01.254Z,5.61
2023-03-10T04:05:28.733Z,5.65
2023-03-10T04:07:57.216Z,5.68
2023-03-10T04:10:26.704Z,5.70
2023-03-10T04:12:56.638Z,5.72
2023-03-10T04:15:24.261Z,5.72
2023-03-10T04:17:52.797Z,5.71
2023-03-10T04:20:20.091Z,5.70
2023-03-10T04:22:51.377Z,5.69
2023-03-10T04:25:21.767Z,5.69
2023-03-10T04:27:49.885Z,5.69
2023-03-10T04:30:17.184Z,5.70
2023-03-10T04:32:49.064Z,5.71
2023-03-10T04:35:16.940Z,5.73
2023-03-10T04:37:46.398Z,5.76
2023-03-10T04:40:14.896Z,5.79
2023-03-10T04:42:42.454Z,5.81
2023-03-10T04:45:10.250Z,5.85
2023-03-10T04:47:38.589Z,5.88
2023-03-10T04:50:08.192Z,5.92
2023-03-10T04:52:35.579Z,5.96
2023-03-10T04:55:03.103Z,5.99
2023-03-10T04:57:32.151Z,6.05
2023-03-10T05:00:01.619Z,6.11
2023-03-10T05:02:35.673Z,6.17
2023-03-10T05:05:03.248Z,6.22
2023-03-10T05:07:30.648Z,6.27
2023-03-10T05:09:58.490Z,6.32
2023-03-10T05:12:27.455Z,6.37
2023-03-10T05:14:58.236Z,6.42
2023-03-10T05:17:27.042Z,6.47
2023-03-10T05:19:54.664Z,6.50
2023-03-10T05:22:23.024Z,6.52
2023-03-10T05:24:50.186Z,6.54
2023-03-10T05:27:19.221Z,6.56
2023-03-10T05:29:46.664Z,6.58
2023-03-10T05:32:19.592Z,6.60
2023-03-10T05:34:48.112Z,6.63
2023-03-10T05:37:15.349Z,6.65
2023-03-10T05:39:43.416Z,6.69
2023-03-10T05:42:12.504Z,6.72
2023-03-10T05:44:39.775Z,6.75
2023-03-10T05:47:07.040Z,6.78
2023-03-10T05:49:36.687Z,6.81
2023-03-10T05:52:04.899Z,6.83
2023-03-10T05:54:33.976Z,6.86
2023-03-10T05:57:01.201Z,6.88
2023-03-10T05:59:28.716Z,6.90
2023-03-10T06:01:56.579Z,6.92
2023-03-10T06:04:23.620Z,6.93
2023-03-10T06:06:52.232Z,6.94
2023-03-10T06:09:19.239Z,6.97
2023-03-10T06:11:48.736Z,7.00
2023-03-10T06:14:16.193Z,7.05
2023-03-10T06:16:48.883Z,7.12
2023-03-10T06:19:20.528Z,7.20
2023-03-10T06:21:48.205Z,7.30
2023-03-10T06:24:15.471Z,7.41
2023-03-10T06:26:43.704Z,7.54
2023-03-10T06:29:10.970Z,7.68
2023-03-10T06:31:38.212Z,7.83
2023-03-10T06:34:05.443Z,7.96
2023-03-10T06:36:32.371Z,8.09
2023-03-10T06:38:59.361Z,8.21
2023-03-10T06:41:27.522Z,8.32
2023-03-10T06:43:54.624Z,8.43
2023-03-10T06:46:22.947Z,8.52
2023-03-10T06:48:50.007Z,8.62
2023-03-10T06:51:19.781Z,8.71
2023-03-10T06:53:51.330Z,8.77
2023-03-10T06:56:21.315Z,8.84
2023-03-10T06:58:49.169Z,8.92
2023-03-10T07:01:22.713Z,8.98
2023-03-10T07:03:49.832Z,9.05
2023-03-10T07:06:16.752Z,9.12
2023-03-10T07:09:04.272Z,9.19
2023-03-10T07:11:32.571Z,9.25
2023-03-10T07:13:59.617Z,9.31
2023-03-10T07:16:26.586Z,9.35
2023-03-10T07:18:53.735Z,9.40
2023-03-10T07:21:21.292Z,9.48
2023-03-10T07:23:49.186Z,9.60
2023-03-10T07:26:18.156Z,9.74
2023-03-10T07:28:46.622Z,9.89
2023-03-10T07:31:14.330Z,10.02
2023-03-10T07:33:43.000Z,10.17
2023-03-10T07:36:12.787Z,10.35
2023-03-10T07:38:40.165Z,10.54
2023-03-10T07:41:09.192Z,10.74
2023-03-10T07:43:38.868Z,10.94
2023-03-10T07:46:09.725Z,11.11
2023-03-10T07:48:36.901Z,11.24
2023-03-10T07:51:04.330Z,11.29
2023-03-10T07:53:32.621Z,11.31
2023-03-10T07:55:59.752Z,11.32
2023-03-10T07:58:27.228Z,11.27
2023-03-10T08:00:57.026Z,11.24
2023-03-10T08:03:26.033Z,11.19
2023-03-10T08:05:54.116Z,11.15
2023-03-10T08:08:22.637Z,11.15
2023-03-10T08:10:49.829Z,11.18
2023-03-10T08:13:16.948Z,11.24
2023-03-10T08:15:44.154Z,11.33
2023-03-10T08:18:11.909Z,11.42
2023-03-10T08:20:39.769Z,11.48
2023-03-10T08:23:07.562Z,11.49
2023-03-10T08:25:34.504Z,11.52
2023-03-10T08:28:01.386Z,11.62
2023-03-10T08:30:28.595Z,11.78
2023-03-10T08:32:55.901Z,11.95
2023-03-10T08:35:22.931Z,12.13
2023-03-10T08:37:55.173Z,12.31
2023-03-10T08:40:22.725Z,12.46
2023-03-10T08:42:49.785Z,12.61
2023-03-10T08:45:17.850Z,12.75
2023-03-10T08:47:44.891Z,12.84
2023-03-10T08:50:12.970Z,12.87
2023-03-10T08:52:40.839Z,12.87
2023-03-10T08:55:11.401Z,12.87
2023-03-10T08:57:39.559Z,12.85
2023-03-10T09:00:10.007Z,12.84
2023-03-10T09:02:38.060Z,12.82
2023-03-10T09:05:06.467Z,12.81
2023-03-10T09:07:40.161Z,12.84
2023-03-10T09:10:08.953Z,12.96
2023-03-10T09:12:43.174Z,13.13
2023-03-10T09:15:14.735Z,13.30
2023-03-10T09:17:45.995Z,13.43
2023-03-10T09:20:16.055Z,13.55
2023-03-10T09:22:45.992Z,13.71
2023-03-10T09:25:15.597Z,13.84
2023-03-10T09:27:46.647Z,14.00
2023-03-10T09:30:18.298Z,14.12
2023-03-10T09:32:54.968Z,14.25
2023-03-10T09:35:24.767Z,14.33
2023-03-10T09:37:54.696Z,14.41
2023-03-10T09:40:24.769Z,14.51
2023-03-10T09:43:21.510Z,14.62
2023-03-10T09:46:08.827Z,14.72
2023-03-10T09:48:55.948Z,14.78
2023-03-10T09:51:29.208Z,14.85
2023-03-10T09:54:28.113Z,14.97
2023-03-10T09:57:00.546Z,15.11
2023-03-10T09:59:40.031Z,15.17
2023-03-10T10:02:19.938Z,15.16
2023-03-10T10:05:04.369Z,15.13
2023-03-10T10:07:49.325Z,15.15
2023-03-10T10:10:32.174Z,15.18
2023-03-10T10:13:16.030Z,15.18
2023-03-10T10:16:33.430Z,15.20
2023-03-10T10:19:08.252Z,15.25
2023-03-10T10:21:52.856Z,15.29
2023-03-10T10:24:21.945Z,15.28
2023-03-10T10:26:52.158Z,15.24
2023-03-10T10:29:24.580Z,15.17
2023-03-10T10:32:11.009Z,15.14
2023-03-10T10:34:41.568Z,15.18
2023-03-10T10:37:31.108Z,15.28
2023-03-10T10:40:00.224Z,15.42
2023-03-10T10:42:32.906Z,15.53
2023-03-10T10:45:06.748Z,15.59
2023-03-10T10:47:45.659Z,15.61
2023-03-10T10:50:27.976Z,15.62
2023-03-10T10:53:19.435Z,15.63
2023-03-10T10:55:58.241Z,15.68
2023-03-10T10:58:45.383Z,15.74
2023-03-10T11:01:16.634Z,15.78
2023-03-10T11:03:50.216Z,15.77
2023-03-10T11:06:18.138Z,15.78
2023-03-10T11:08:50.369Z,15.80
2023-03-10T11:11:54.078Z,15.81
2023-03-10T11:14:26.127Z,15.89
2023-03-10T11:17:31.000Z,15.95
2023-03-10T11:20:08.222Z,16.03
2023-03-10T11:22:46.638Z,16.07
2023-03-10T11:25:42.069Z,16.13
2023-03-10T11:28:15.790Z,16.15
2023-03-10T11:30:54.901Z,16.16
2023-03-10T11:33:59.374Z,16.08
2023-03-10T11:36:56.383Z,16.03
2023-03-10T11:39:31.098Z,16.08
2023-03-10T11:42:13.784Z,16.13
2023-03-10T11:44:40.689Z,16.10
2023-03-10T11:47:14.272Z,16.08
2023-03-10T11:49:43.304Z,16.05
2023-03-10T11:52:18.315Z,16.01
2023-03-10T11:54:50.736Z,15.93
2023-03-10T11:57:21.750Z,15.86
2023-03-10T12:00:00.548Z,15.82
2023-03-10T12:02:45.422Z,15.80
2023-03-10T12:05:24.182Z,15.85
2023-03-10T12:08:00.134Z,15.87
2023-03-10T12:10:28.905Z,15.87
2023-03-10T12:12:57.887Z,15.83
2023-03-10T12:15:36.398Z,15.81
2023-03-10T12:18:07.781Z,15.72
2023-03-10T12:20:35.171Z,15.55
2023-03-10T12:23:24.303Z,15.39
2023-03-10T12:25:51.410Z,15.29
2023-03-10T12:28:26.782Z,15.26
2023-03-10T12:30:59.175Z,15.31
2023-03-10T12:33:31.685Z,15.45
2023-03-10T12:36:04.941Z,15.63
2023-03-10T12:38:53.504Z,15.73
2023-03-10T12:41:27.161Z,15.72
2023-03-10T12:43:57.660Z,15.65
2023-03-10T12:46:37.849Z,15.60
2023-03-10T12:49:16.406Z,15.66
2023-03-10T12:51:47.824Z,15.80
2023-03-10T12:54:31.450Z,15.93
2023-03-10T12:57:30.316Z,16.03
2023-03-10T13:00:24.877Z,16.11
2023-03-10T13:02:55.995Z,16.20
2023-03-10T13:05:32.326Z,16.25
2023-03-10T13:08:12.716Z,16.27
2023-03-10T13:10:45.319Z,16.30
2023-03-10T13:13:16.755Z,16.33
2023-03-10T13:15:58.276Z,16.33
2023-03-10T13:18:28.103Z,16.32
2023-03-10T13:20:55.093Z,16.31
2023-03-10T13:23:23.637Z,16.28
2023-03-10T13:25:55.877Z,16.25
2023-03-10T13:28:25.154Z,16.23
2023-03-10T13:31:05.624Z,16.20
2023-03-10T13:33:43.011Z,16.16
2023-03-10T13:36:29.973Z,16.12
2023-03-10T13:38:59.195Z,16.10
2023-03-10T13:41:26.231Z,16.08
2023-03-10T13:43:54.895Z,16.08
2023-03-10T13:46:26.599Z,16.05
2023-03-10T13:48:57.655Z,16.00
2023-03-10T13:51:32.293Z,15.96
2023-03-10T13:54:24.216Z,15.92
2023-03-10T13:57:22.473Z,15.87
2023-03-10T13:59:55.548Z,15.81
2023-03-10T14:02:35.524Z,15.77
2023-03-10T14:05:06.391Z,15.73
2023-03-10T14:07:36.117Z,15.67
2023-03-10T14:10:03.095Z,15.63
2023-03-10T14:12:46.914Z,15.60
2023-03-10T14:15:22.415Z,15.55
2023-03-10T14:18:12.872Z,15.51
2023-03-10T14:20:42.923Z,15.47
2023-03-10T14:23:19.155Z,15.41
2023-03-10T14:25:47.896Z,15.36
2023-03-10T14:28:27.805Z,15.31
2023-03-10T14:30:55.064Z,15.27
2023-03-10T14:33:22.644Z,15.21
2023-03-10T14:35:49.826Z,15.16
2023-03-10T14:38:21.632Z,15.11
2023-03-10T14:40:54.372Z,15.07
2023-03-10T14:43:24.940Z,15.03
2023-03-10T14:45:54.703Z,14.98
2023-03-10T14:48:24.908Z,14.93
2023-03-10T14:50:53.113Z,14.87
2023-03-10T14:53:24.065Z,14.81
2023-03-10T14:55:55.489Z,14.75
2023-03-10T14:58:29.748Z,14.67
2023-03-10T15:00:56.867Z,14.58
2023-03-10T15:03:23.816Z,14.49
2023-03-10T15:05:50.791Z,14.40
2023-03-10T15:08:19.205Z,14.32
2023-03-10T15:10:50.317Z,14.22
2023-03-10T15:13:23.335Z,14.13
2023-03-10T15:15:59.204Z,14.05
2023-03-10T15:18:26.674Z,13.99
2023-03-10T15:20:59.746Z,13.94
2023-03-10T15:23:27.929Z,13.88
2023-03-10T15:25:56.267Z,13.81
2023-03-10T15:28:23.370Z,13.73
2023-03-10T15:30:50.556Z,13.63
2023-03-10T15:33:18.044Z,13.51
2023-03-10T15:35:46.636Z,13.40
2023-03-10T15:38:14.351Z,13.26
2023-03-10T15:40:41.952Z,13.14
2023-03-10T15:43:09.438Z,13.04
2023-03-10T15:45:42.304Z,12.94
2023-03-10T15:48:13.219Z,12.83
2023-03-10T15:50:49.197Z,12.73
2023-03-10T15:53:20.365Z,12.62
2023-03-10T15:55:51.172Z,12.50
2023-03-10T15:58:18.386Z,12.40
2023-03-10T16:00:45.685Z,12.32
2023-03-10T16:03:16.387Z,12.25
2023-03-10T16:05:49.131Z,12.18
2023-03-10T16:08:18.585Z,12.12
2023-03-10T16:10:53.748Z,12.08
2023-03-10T16:13:21.970Z,12.03
2023-03-10T16:15:52.216Z,11.97
2023-03-10T16:18:20.162Z,11.90
2023-03-10T16:20:58.166Z,11.85
2023-03-10T16:23:28.404Z,11.77
2023-03-10T16:26:08.589Z,11.70
2023-03-10T16:28:37.983Z,11.61
2023-03-10T16:31:06.302Z,11.54
2023-03-10T16:33:41.273Z,11.48
2023-03-10T16:36:13.072Z,11.44
2023-03-10T16:38:40.304Z,11.40
2023-03-10T16:41:09.724Z,11.38
2023-03-10T16:43:38.491Z,11.35
2023-03-10T16:46:11.858Z,11.30
2023-03-10T16:48:43.963Z,11.25
2023-03-10T16:51:32.515Z,11.21
2023-03-10T16:54:03.074Z,11.20
2023-03-10T16:56:34.501Z,11.18
2023-03-10T16:59:01.426Z,11.16
2023-03-10T17:01:28.988Z,11.14
2023-03-10T17:03:56.855Z,11.12
2023-03-10T17:06:29.214Z,11.10
2023-03-10T17:08:58.288Z,11.08
2023-03-10T17:11:31.470Z,11.06
2023-03-10T17:14:06.272Z,11.03
2023-03-10T17:16:35.934Z,10.99
2023-03-10T17:19:07.232Z,10.94
2023-03-10T17:21:38.798Z,10.89
2023-03-10T17:24:07.648Z,10.85
2023-03-10T17:26:36.039Z,10.79
2023-03-10T17:29:04.368Z,10.72
2023-03-10T17:31:36.552Z,10.62
2023-03-10T17:34:06.981Z,10.53
2023-03-10T17:36:34.490Z,10.45
2023-03-10T17:39:04.280Z,10.37
2023-03-10T17:41:34.003Z,10.28
2023-03-10T17:44:04.145Z,10.17
2023-03-10T17:46:31.572Z,10.12
2023-03-10T17:49:01.678Z,10.09
2023-03-10T17:51:30.885Z,10.08
2023-03-10T17:54:00.786Z,10.05
2023-03-10T17:56:28.080Z,10.01
2023-03-10T17:58:56.738Z,9.98
2023-03-10T18:01:26.943Z,9.95
2023-03-10T18:03:59.102Z,9.91
2023-03-10T18:06:28.921Z,9.85
2023-03-10T18:08:58.182Z,9.80
2023-03-10T18:11:26.905Z,9.76
2023-03-10T18:13:57.323Z,9.73
2023-03-10T18:16:29.992Z,9.72
2023-03-10T18:18:58.274Z,9.70
2023-03-10T18:21:26.381Z,9.69
2023-03-10T18:23:56.786Z,9.68
2023-03-10T18:26:27.119Z,9.66
2023-03-10T18:28:54.576Z,9.64
2023-03-10T18:31:26.542Z,9.63
2023-03-10T18:34:00.235Z,9.61
2023-03-10T18:36:29.601Z,9.59
2023-03-10T18:39:01.853Z,9.57
2023-03-10T18:41:31.386Z,9.53
2023-03-10T18:43:59.518Z,9.47
2023-03-10T18:46:26.955Z,9.39
2023-03-10T18:48:55.451Z,9.34
2023-03-10T18:51:25.374Z,9.29
2023-03-10T18:53:53.421Z,9.23
2023-03-10T18:56:28.494Z,9.17
2023-03-10T18:58:55.855Z,9.11
2023-03-10T19:01:23.050Z,9.05
2023-03-10T19:03:50.326Z,8.98
2023-03-10T19:06:17.416Z,8.95
2023-03-10T19:08:44.370Z,8.95
2023-03-10T19:11:11.769Z,8.95
2023-03-10T19:13:40.092Z,8.93
2023-03-10T19:16:09.262Z,8.88
2023-03-10T19:18:36.609Z,8.80
2023-03-10T19:21:04.577Z,8.74
2023-03-10T19:23:34.408Z,8.65
2023-03-10T19:26:02.432Z,8.56
2023-03-10T19:28:29.557Z,8.47
2023-03-10T19:30:56.632Z,8.37
2023-03-10T19:33:24.947Z,8.27
2023-03-10T19:36:12.706Z,8.20
2023-03-10T19:38:43.137Z,8.12
2023-03-10T19:41:13.143Z,8.07
2023-03-10T19:43:48.405Z,8.02
2023-03-10T19:46:16.330Z,8.01
2023-03-10T19:48:44.126Z,8.02
2023-03-10T19:51:20.723Z,8.02
2023-03-10T19:53:49.435Z,7.99
2023-03-10T19:56:18.449Z,7.99
2023-03-10T19:58:47.566Z,8.03
2023-03-10T20:01:23.088Z,8.08
2023-03-10T20:03:50.854Z,8.08
2023-03-10T20:06:17.840Z,8.05
2023-03-10T20:08:45.718Z,8.03
2023-03-10T20:11:15.590Z,8.00
2023-03-10T20:13:45.215Z,7.95
2023-03-10T20:16:15.085Z,7.90
2023-03-10T20:18:45.817Z,7.84
2023-03-10T20:21:12.918Z,7.78
2023-03-10T20:23:39.836Z,7.73
2023-03-10T20:26:10.310Z,7.66
2023-03-10T20:28:39.143Z,7.58
2023-03-10T20:31:08.393Z,7.53
2023-03-10T20:33:36.070Z,7.47
2023-03-10T20:36:09.426Z,7.43
2023-03-10T20:38:45.340Z,7.37
2023-03-10T20:41:14.698Z,7.29
2023-03-10T20:43:42.646Z,7.20
2023-03-10T20:46:10.695Z,7.16
2023-03-10T20:48:38.695Z,7.14
2023-03-10T20:51:06.532Z,7.11
2023-03-10T20:53:40.022Z,7.09
2023-03-10T20:56:10.229Z,7.05
2023-03-10T20:58:37.748Z,7.03
2023-03-10T21:01:04.942Z,7.02
2023-03-10T21:03:32.367Z,6.99
2023-03-10T21:06:01.650Z,6.99
2023-03-10T21:08:28.861Z,6.99
2023-03-10T21:10:59.042Z,6.98
2023-03-10T21:13:27.266Z,6.96
2023-03-10T21:15:54.323Z,6.94
2023-03-10T21:18:22.194Z,6.93
2023-03-10T21:20:49.150Z,6.93
2023-03-10T21:23:16.061Z,6.94
2023-03-10T21:25:44.620Z,6.93
2023-03-10T21:28:12.423Z,6.92
2023-03-10T21:30:39.630Z,6.88
2023-03-10T21:33:07.539Z,6.81
2023-03-10T21:35:38.039Z,6.75
2023-03-10T21:38:04.993Z,6.70
2023-03-10T21:40:32.784Z,6.65
2023-03-10T21:43:02.573Z,6.59
2023-03-10T21:45:33.615Z,6.53
2023-03-10T21:48:00.641Z,6.49
2023-03-10T21:50:27.519Z,6.45
2023-03-10T21:52:55.741Z,6.44
2023-03-10T21:55:25.068Z,6.43
2023-03-10T21:57:52.424Z,6.42
2023-03-10T22:00:22.477Z,6.42
2023-03-10T22:02:50.639Z,6.43
2023-03-10T22:05:19.116Z,6.43
2023-03-10T22:07:53.048Z,6.42
2023-03-10T22:10:20.196Z,6.41
2023-03-10T22:12:48.196Z,6.39
2023-03-10T22:15:20.233Z,6.37
2023-03-10T22:17:48.431Z,6.34
2023-03-10T22:20:23.701Z,6.32
2023-03-10T22:22:51.388Z,6.28
2023-03-10T22:25:19.743Z,6.24
2023-03-10T22:27:54.782Z,6.22
2023-03-10T22:30:25.114Z,6.19
2023-03-10T22:32:53.452Z,6.18
2023-03-10T22:35:21.356Z,6.17
2023-03-10T22:37:49.373Z,6.16
2023-03-10T22:40:25.010Z,6.14
2023-03-10T22:42:55.154Z,6.12
2023-03-10T22:45:25.839Z,6.10
2023-03-10T22:47:57.165Z,6.09
2023-03-10T22:50:29.383Z,6.04
2023-03-10T22:52:58.257Z,5.95
2023-03-10T22:55:25.542Z,5.90
2023-03-10T22:57:53.409Z,5.89
2023-03-10T23:00:22.252Z,5.89
2023-03-10T23:02:51.778Z,5.89
2023-03-10T23:05:19.977Z,5.89
2023-03-10T23:07:49.560Z,5.90
2023-03-10T23:10:24.401Z,5.90
2023-03-10T23:12:53.433Z,5.89
2023-03-10T23:15:25.841Z,5.89
2023-03-10T23:17:55.236Z,5.90
2023-03-10T23:20:26.721Z,5.95
2023-03-10T23:22:57.438Z,5.99
2023-03-10T23:25:34.238Z,6.02
2023-03-10T23:28:02.692Z,6.07
2023-03-10T23:30:30.186Z,6.12
2023-03-10T23:32:57.512Z,6.15
2023-03-10T23:35:28.495Z,6.17
2023-03-10T23:37:56.548Z,6.18
2023-03-10T23:40:26.515Z,6.19
2023-03-10T23:42:56.510Z,6.20
2023-03-10T23:45:27.588Z,6.21
2023-03-10T23:47:57.892Z,6.23
2023-03-10T23:50:25.504Z,6.21
2023-03-10T23:52:53.184Z,6.20
2023-03-10T23:55:24.510Z,6.19
2023-03-10T23:57:52.734Z,6.22
